Israelandia, Brazil
Current Conditions -  °F | °C
As of 2:00 PM on Sunday 23 Nov 2014 (Local Time) from SBGO Reporting Station
Rain Showers Rain Showers  
Wind Chill: 84°   Ceiling: Unl
Heat Index: 86°   Visibility: 6mi
Dew Point: 64°   Wind: 7mph
Humidity: 51%   Direction: 350°N
Pressure: NA   Gusts: NA
Location:  16.33°S, 50.91°W
Report Text: SBGO 231600Z 35006KT 9999 VCSH SCT030 FEW035TCU SCT100 29/18 Q1014
Loading
Personal Weather Stations






























Interactive Weather Map New forecast layout! Learn more

10-Day Weather Forecast

Advertisements
Track Severe Weather on mobile